sensor_id;sensor_type;location;lat;lon;timestamp;P1;durP1;ratioP1;P2;durP2;ratioP2
19842;SDS011;10082;51.038;6.992;2022-12-16T00:01:48;41.17;;;34.83;;
19842;SDS011;10082;51.038;6.992;2022-12-16T00:04:20;37.17;;;33.10;;
19842;SDS011;10082;51.038;6.992;2022-12-16T00:06:54;39.37;;;33.03;;
19842;SDS011;10082;51.038;6.992;2022-12-16T00:09:23;37.37;;;31.93;;
19842;SDS011;10082;51.038;6.992;2022-12-16T00:11:51;35.53;;;31.67;;
19842;SDS011;10082;51.038;6.992;2022-12-16T00:14:21;37.90;;;33.77;;
19842;SDS011;10082;51.038;6.992;2022-12-16T00:16:57;36.97;;;33.00;;
19842;SDS011;10082;51.038;6.992;2022-12-16T00:19:27;37.40;;;33.37;;
19842;SDS011;10082;51.038;6.992;2022-12-16T00:22:00;38.33;;;34.20;;
19842;SDS011;10082;51.038;6.992;2022-12-16T00:24:32;36.07;;;31.60;;
19842;SDS011;10082;51.038;6.992;2022-12-16T00:27:07;38.07;;;33.63;;
19842;SDS011;10082;51.038;6.992;2022-12-16T00:29:40;38.47;;;34.10;;
19842;SDS011;10082;51.038;6.992;2022-12-16T00:32:11;38.77;;;34.50;;
19842;SDS011;10082;51.038;6.992;2022-12-16T00:34:43;37.03;;;32.77;;
19842;SDS011;10082;51.038;6.992;2022-12-16T00:37:22;36.47;;;32.60;;
19842;SDS011;10082;51.038;6.992;2022-12-16T00:39:55;35.47;;;31.57;;
19842;SDS011;10082;51.038;6.992;2022-12-16T00:42:26;38.67;;;34.43;;
19842;SDS011;10082;51.038;6.992;2022-12-16T00:44:56;36.87;;;32.87;;
19842;SDS011;10082;51.038;6.992;2022-12-16T00:47:25;35.87;;;31.33;;
19842;SDS011;10082;51.038;6.992;2022-12-16T00:50:02;37.00;;;33.00;;
19842;SDS011;10082;51.038;6.992;2022-12-16T00:52:33;35.00;;;30.77;;
19842;SDS011;10082;51.038;6.992;2022-12-16T00:55:06;36.20;;;32.30;;
19842;SDS011;10082;51.038;6.992;2022-12-16T00:57:39;34.80;;;30.97;;
19842;SDS011;10082;51.038;6.992;2022-12-16T01:00:10;34.07;;;30.53;;
19842;SDS011;10082;51.038;6.992;2022-12-16T01:02:42;34.57;;;30.87;;
19842;SDS011;10082;51.038;6.992;2022-12-16T01:05:19;35.03;;;31.33;;
19842;SDS011;10082;51.038;6.992;2022-12-16T01:08:03;33.50;;;30.10;;
19842;SDS011;10082;51.038;6.992;2022-12-16T01:10:32;36.73;;;32.40;;
19842;SDS011;10082;51.038;6.992;2022-12-16T01:13:09;34.53;;;30.70;;
19842;SDS011;10082;51.038;6.992;2022-12-16T01:15:41;33.20;;;29.73;;
19842;SDS011;10082;51.038;6.992;2022-12-16T01:18:14;34.30;;;30.60;;
19842;SDS011;10082;51.038;6.992;2022-12-16T01:20:46;34.93;;;31.17;;
19842;SDS011;10082;51.038;6.992;2022-12-16T01:23:25;34.00;;;30.43;;
19842;SDS011;10082;51.038;6.992;2022-12-16T01:25:55;33.37;;;29.80;;
19842;SDS011;10082;51.038;6.992;2022-12-16T01:28:26;32.77;;;29.43;;
19842;SDS011;10082;51.038;6.992;2022-12-16T01:31:05;33.20;;;29.40;;
19842;SDS011;10082;51.038;6.992;2022-12-16T01:33:34;31.13;;;27.73;;
19842;SDS011;10082;51.038;6.992;2022-12-16T01:36:09;32.33;;;28.93;;
19842;SDS011;10082;51.038;6.992;2022-12-16T01:38:41;33.00;;;29.57;;
19842;SDS011;10082;51.038;6.992;2022-12-16T01:41:26;31.17;;;27.97;;
19842;SDS011;10082;51.038;6.992;2022-12-16T01:44:11;31.30;;;28.10;;
19842;SDS011;10082;51.038;6.992;2022-12-16T01:46:41;32.60;;;29.20;;
19842;SDS011;10082;51.038;6.992;2022-12-16T01:49:25;33.03;;;29.63;;
19842;SDS011;10082;51.038;6.992;2022-12-16T01:52:04;32.70;;;29.30;;
19842;SDS011;10082;51.038;6.992;2022-12-16T01:54:50;32.27;;;28.77;;
19842;SDS011;10082;51.038;6.992;2022-12-16T01:57:28;32.33;;;29.03;;
19842;SDS011;10082;51.038;6.992;2022-12-16T02:00:06;30.87;;;27.77;;
19842;SDS011;10082;51.038;6.992;2022-12-16T02:02:41;31.77;;;28.53;;
19842;SDS011;10082;51.038;6.992;2022-12-16T02:05:16;31.80;;;28.60;;
19842;SDS011;10082;51.038;6.992;2022-12-16T02:07:55;31.60;;;28.37;;
19842;SDS011;10082;51.038;6.992;2022-12-16T02:10:38;31.43;;;28.13;;
19842;SDS011;10082;51.038;6.992;2022-12-16T02:13:43;31.07;;;27.93;;
19842;SDS011;10082;51.038;6.992;2022-12-16T02:16:25;30.60;;;27.50;;
19842;SDS011;10082;51.038;6.992;2022-12-16T02:19:08;31.63;;;28.50;;
19842;SDS011;10082;51.038;6.992;2022-12-16T02:21:59;31.93;;;28.57;;
19842;SDS011;10082;51.038;6.992;2022-12-16T02:27:54;31.73;;;28.50;;
19842;SDS011;10082;51.038;6.992;2022-12-16T02:30:51;31.00;;;27.80;;
19842;SDS011;10082;51.038;6.992;2022-12-16T02:33:43;30.17;;;27.10;;
19842;SDS011;10082;51.038;6.992;2022-12-16T02:36:21;31.13;;;28.03;;
19842;SDS011;10082;51.038;6.992;2022-12-16T02:39:07;30.13;;;27.10;;
19842;SDS011;10082;51.038;6.992;2022-12-16T02:41:46;30.50;;;27.30;;
19842;SDS011;10082;51.038;6.992;2022-12-16T02:44:24;31.53;;;28.30;;
19842;SDS011;10082;51.038;6.992;2022-12-16T02:47:04;30.80;;;27.60;;
19842;SDS011;10082;51.038;6.992;2022-12-16T02:49:47;28.70;;;25.80;;
19842;SDS011;10082;51.038;6.992;2022-12-16T02:52:20;30.40;;;27.27;;
19842;SDS011;10082;51.038;6.992;2022-12-16T02:54:55;30.40;;;27.30;;
19842;SDS011;10082;51.038;6.992;2022-12-16T02:57:56;30.03;;;26.97;;
19842;SDS011;10082;51.038;6.992;2022-12-16T03:00:37;30.27;;;27.10;;
19842;SDS011;10082;51.038;6.992;2022-12-16T03:03:32;29.73;;;26.60;;
19842;SDS011;10082;51.038;6.992;2022-12-16T03:06:07;29.73;;;26.67;;
19842;SDS011;10082;51.038;6.992;2022-12-16T03:08:42;28.53;;;25.60;;
19842;SDS011;10082;51.038;6.992;2022-12-16T03:11:34;30.00;;;26.80;;
19842;SDS011;10082;51.038;6.992;2022-12-16T03:14:19;29.47;;;26.33;;
19842;SDS011;10082;51.038;6.992;2022-12-16T03:16:59;28.03;;;25.13;;
19842;SDS011;10082;51.038;6.992;2022-12-16T03:19:32;29.47;;;26.47;;
19842;SDS011;10082;51.038;6.992;2022-12-16T03:22:05;29.67;;;26.67;;
19842;SDS011;10082;51.038;6.992;2022-12-16T03:24:37;30.70;;;27.60;;
19842;SDS011;10082;51.038;6.992;2022-12-16T03:27:08;29.07;;;26.07;;
19842;SDS011;10082;51.038;6.992;2022-12-16T03:29:52;29.37;;;26.37;;
19842;SDS011;10082;51.038;6.992;2022-12-16T03:32:27;28.83;;;25.90;;
19842;SDS011;10082;51.038;6.992;2022-12-16T03:35:11;28.10;;;25.30;;
19842;SDS011;10082;51.038;6.992;2022-12-16T03:37:46;29.27;;;26.27;;
19842;SDS011;10082;51.038;6.992;2022-12-16T03:40:22;29.47;;;26.37;;
19842;SDS011;10082;51.038;6.992;2022-12-16T03:43:04;29.87;;;26.77;;
19842;SDS011;10082;51.038;6.992;2022-12-16T03:45:35;28.97;;;25.63;;
19842;SDS011;10082;51.038;6.992;2022-12-16T03:48:08;27.97;;;25.07;;
19842;SDS011;10082;51.038;6.992;2022-12-16T03:50:40;28.53;;;25.67;;
19842;SDS011;10082;51.038;6.992;2022-12-16T03:53:11;29.73;;;26.67;;
19842;SDS011;10082;51.038;6.992;2022-12-16T03:56:08;30.47;;;27.43;;
19842;SDS011;10082;51.038;6.992;2022-12-16T03:58:51;28.33;;;25.53;;
19842;SDS011;10082;51.038;6.992;2022-12-16T04:01:24;28.70;;;25.80;;
19842;SDS011;10082;51.038;6.992;2022-12-16T04:04:03;28.47;;;25.57;;
19842;SDS011;10082;51.038;6.992;2022-12-16T04:06:39;29.33;;;26.33;;
19842;SDS011;10082;51.038;6.992;2022-12-16T04:09:57;29.27;;;26.27;;
19842;SDS011;10082;51.038;6.992;2022-12-16T04:12:28;27.70;;;24.93;;
19842;SDS011;10082;51.038;6.992;2022-12-16T04:15:14;29.70;;;26.60;;
19842;SDS011;10082;51.038;6.992;2022-12-16T04:17:58;29.90;;;26.80;;
19842;SDS011;10082;51.038;6.992;2022-12-16T04:20:43;29.03;;;26.03;;
19842;SDS011;10082;51.038;6.992;2022-12-16T04:23:34;29.70;;;26.60;;
19842;SDS011;10082;51.038;6.992;2022-12-16T04:26:23;28.13;;;25.30;;
19842;SDS011;10082;51.038;6.992;2022-12-16T04:28:53;29.63;;;26.43;;
19842;SDS011;10082;51.038;6.992;2022-12-16T04:31:27;28.67;;;25.73;;
19842;SDS011;10082;51.038;6.992;2022-12-16T04:33:59;27.97;;;25.17;;
19842;SDS011;10082;51.038;6.992;2022-12-16T04:36:44;28.30;;;25.20;;
19842;SDS011;10082;51.038;6.992;2022-12-16T04:39:41;29.07;;;25.97;;
19842;SDS011;10082;51.038;6.992;2022-12-16T04:42:31;29.37;;;26.33;;
19842;SDS011;10082;51.038;6.992;2022-12-16T04:45:33;28.63;;;25.83;;
19842;SDS011;10082;51.038;6.992;2022-12-16T04:48:19;28.30;;;25.50;;
19842;SDS011;10082;51.038;6.992;2022-12-16T04:51:06;28.50;;;25.50;;
19842;SDS011;10082;51.038;6.992;2022-12-16T04:53:50;27.40;;;24.60;;
19842;SDS011;10082;51.038;6.992;2022-12-16T04:56:53;28.27;;;25.27;;
19842;SDS011;10082;51.038;6.992;2022-12-16T04:59:40;28.73;;;25.83;;
19842;SDS011;10082;51.038;6.992;2022-12-16T05:02:28;28.33;;;25.40;;
19842;SDS011;10082;51.038;6.992;2022-12-16T05:05:14;27.73;;;25.03;;
19842;SDS011;10082;51.038;6.992;2022-12-16T05:07:59;27.53;;;24.57;;
19842;SDS011;10082;51.038;6.992;2022-12-16T05:10:47;25.83;;;23.07;;
19842;SDS011;10082;51.038;6.992;2022-12-16T05:13:40;28.20;;;23.97;;
19842;SDS011;10082;51.038;6.992;2022-12-16T05:16:25;35.87;;;32.07;;
19842;SDS011;10082;51.038;6.992;2022-12-16T05:19:10;35.90;;;31.70;;
19842;SDS011;10082;51.038;6.992;2022-12-16T05:21:58;30.67;;;27.37;;
19842;SDS011;10082;51.038;6.992;2022-12-16T05:24:43;28.83;;;23.17;;
19842;SDS011;10082;51.038;6.992;2022-12-16T05:27:27;26.27;;;22.60;;
19842;SDS011;10082;51.038;6.992;2022-12-16T05:30:15;28.93;;;21.97;;
19842;SDS011;10082;51.038;6.992;2022-12-16T05:33:01;26.67;;;20.70;;
19842;SDS011;10082;51.038;6.992;2022-12-16T05:35:46;25.67;;;20.37;;
19842;SDS011;10082;51.038;6.992;2022-12-16T05:38:34;25.67;;;21.33;;
19842;SDS011;10082;51.038;6.992;2022-12-16T05:41:21;24.80;;;19.17;;
19842;SDS011;10082;51.038;6.992;2022-12-16T05:44:07;25.67;;;19.07;;
19842;SDS011;10082;51.038;6.992;2022-12-16T05:46:54;27.57;;;19.67;;
19842;SDS011;10082;51.038;6.992;2022-12-16T05:49:54;26.77;;;20.17;;
19842;SDS011;10082;51.038;6.992;2022-12-16T05:52:47;27.07;;;20.10;;
19842;SDS011;10082;51.038;6.992;2022-12-16T05:55:37;26.33;;;19.83;;
19842;SDS011;10082;51.038;6.992;2022-12-16T05:58:25;28.10;;;21.53;;
19842;SDS011;10082;51.038;6.992;2022-12-16T06:01:20;25.17;;;19.60;;
19842;SDS011;10082;51.038;6.992;2022-12-16T06:04:05;25.33;;;19.87;;
19842;SDS011;10082;51.038;6.992;2022-12-16T06:06:51;25.93;;;20.10;;
19842;SDS011;10082;51.038;6.992;2022-12-16T06:09:44;27.10;;;20.17;;
19842;SDS011;10082;51.038;6.992;2022-12-16T06:12:29;25.57;;;18.63;;
19842;SDS011;10082;51.038;6.992;2022-12-16T06:15:15;24.83;;;19.63;;
19842;SDS011;10082;51.038;6.992;2022-12-16T06:18:01;25.67;;;19.60;;
19842;SDS011;10082;51.038;6.992;2022-12-16T06:20:59;24.93;;;19.00;;
19842;SDS011;10082;51.038;6.992;2022-12-16T06:23:54;22.93;;;17.60;;
19842;SDS011;10082;51.038;6.992;2022-12-16T06:26:39;23.93;;;18.27;;
19842;SDS011;10082;51.038;6.992;2022-12-16T06:29:27;24.53;;;18.67;;
19842;SDS011;10082;51.038;6.992;2022-12-16T06:32:13;23.73;;;17.93;;
19842;SDS011;10082;51.038;6.992;2022-12-16T06:35:01;23.73;;;18.47;;
19842;SDS011;10082;51.038;6.992;2022-12-16T06:37:52;23.13;;;17.83;;
19842;SDS011;10082;51.038;6.992;2022-12-16T06:40:48;22.57;;;18.00;;
19842;SDS011;10082;51.038;6.992;2022-12-16T06:43:37;26.50;;;19.53;;
19842;SDS011;10082;51.038;6.992;2022-12-16T06:46:22;28.57;;;18.33;;
19842;SDS011;10082;51.038;6.992;2022-12-16T06:49:09;25.93;;;18.50;;
19842;SDS011;10082;51.038;6.992;2022-12-16T06:52:00;26.20;;;20.10;;
19842;SDS011;10082;51.038;6.992;2022-12-16T06:54:48;27.00;;;19.33;;
19842;SDS011;10082;51.038;6.992;2022-12-16T06:57:35;25.93;;;19.47;;
19842;SDS011;10082;51.038;6.992;2022-12-16T07:00:24;26.10;;;19.10;;
19842;SDS011;10082;51.038;6.992;2022-12-16T07:03:09;26.00;;;18.83;;
19842;SDS011;10082;51.038;6.992;2022-12-16T07:05:57;26.03;;;19.73;;
19842;SDS011;10082;51.038;6.992;2022-12-16T07:08:42;24.17;;;19.00;;
19842;SDS011;10082;51.038;6.992;2022-12-16T07:11:29;23.03;;;18.10;;
19842;SDS011;10082;51.038;6.992;2022-12-16T07:14:21;25.87;;;19.13;;
19842;SDS011;10082;51.038;6.992;2022-12-16T07:17:13;24.13;;;18.67;;
19842;SDS011;10082;51.038;6.992;2022-12-16T07:20:10;22.83;;;18.13;;
19842;SDS011;10082;51.038;6.992;2022-12-16T07:22:57;26.67;;;19.10;;
19842;SDS011;10082;51.038;6.992;2022-12-16T07:25:48;23.27;;;18.57;;
19842;SDS011;10082;51.038;6.992;2022-12-16T07:28:35;24.60;;;19.07;;
19842;SDS011;10082;51.038;6.992;2022-12-16T07:31:25;25.20;;;18.23;;
19842;SDS011;10082;51.038;6.992;2022-12-16T07:34:10;24.70;;;19.47;;
19842;SDS011;10082;51.038;6.992;2022-12-16T07:36:55;25.33;;;18.93;;
19842;SDS011;10082;51.038;6.992;2022-12-16T07:39:48;26.03;;;18.47;;
19842;SDS011;10082;51.038;6.992;2022-12-16T07:42:37;24.53;;;18.77;;
19842;SDS011;10082;51.038;6.992;2022-12-16T07:45:48;24.10;;;19.50;;
19842;SDS011;10082;51.038;6.992;2022-12-16T07:48:35;25.53;;;18.77;;
19842;SDS011;10082;51.038;6.992;2022-12-16T07:51:19;26.90;;;18.93;;
19842;SDS011;10082;51.038;6.992;2022-12-16T07:54:05;25.60;;;18.50;;
19842;SDS011;10082;51.038;6.992;2022-12-16T07:56:51;23.03;;;18.27;;
19842;SDS011;10082;51.038;6.992;2022-12-16T07:59:41;25.40;;;18.17;;
19842;SDS011;10082;51.038;6.992;2022-12-16T08:02:27;22.20;;;16.90;;
19842;SDS011;10082;51.038;6.992;2022-12-16T08:05:13;22.80;;;17.73;;
19842;SDS011;10082;51.038;6.992;2022-12-16T08:07:59;24.67;;;17.97;;
19842;SDS011;10082;51.038;6.992;2022-12-16T08:10:44;23.53;;;17.50;;
19842;SDS011;10082;51.038;6.992;2022-12-16T08:13:30;23.53;;;18.00;;
19842;SDS011;10082;51.038;6.992;2022-12-16T08:16:15;24.20;;;18.50;;
19842;SDS011;10082;51.038;6.992;2022-12-16T08:19:09;24.97;;;18.03;;
19842;SDS011;10082;51.038;6.992;2022-12-16T08:21:54;25.33;;;18.10;;
19842;SDS011;10082;51.038;6.992;2022-12-16T08:24:41;26.10;;;18.40;;
19842;SDS011;10082;51.038;6.992;2022-12-16T08:27:27;23.63;;;18.20;;
19842;SDS011;10082;51.038;6.992;2022-12-16T08:30:11;24.03;;;17.00;;
19842;SDS011;10082;51.038;6.992;2022-12-16T08:32:56;24.83;;;18.77;;
19842;SDS011;10082;51.038;6.992;2022-12-16T08:35:56;23.93;;;17.67;;
19842;SDS011;10082;51.038;6.992;2022-12-16T08:38:41;25.23;;;17.77;;
19842;SDS011;10082;51.038;6.992;2022-12-16T08:41:26;24.17;;;17.80;;
19842;SDS011;10082;51.038;6.992;2022-12-16T08:44:13;29.63;;;20.33;;
19842;SDS011;10082;51.038;6.992;2022-12-16T08:46:59;24.67;;;19.20;;
19842;SDS011;10082;51.038;6.992;2022-12-16T08:49:45;26.40;;;19.17;;
19842;SDS011;10082;51.038;6.992;2022-12-16T08:52:38;21.90;;;17.67;;
19842;SDS011;10082;51.038;6.992;2022-12-16T08:55:23;24.27;;;17.97;;
19842;SDS011;10082;51.038;6.992;2022-12-16T08:58:07;22.10;;;17.83;;
19842;SDS011;10082;51.038;6.992;2022-12-16T09:00:55;23.30;;;18.60;;
19842;SDS011;10082;51.038;6.992;2022-12-16T09:03:41;24.57;;;18.40;;
19842;SDS011;10082;51.038;6.992;2022-12-16T09:06:27;23.00;;;18.20;;
19842;SDS011;10082;51.038;6.992;2022-12-16T09:09:16;24.27;;;18.30;;
19842;SDS011;10082;51.038;6.992;2022-12-16T09:12:03;22.00;;;16.50;;
19842;SDS011;10082;51.038;6.992;2022-12-16T09:14:49;21.20;;;17.03;;
19842;SDS011;10082;51.038;6.992;2022-12-16T09:17:34;20.43;;;17.23;;
19842;SDS011;10082;51.038;6.992;2022-12-16T09:20:19;21.97;;;17.80;;
19842;SDS011;10082;51.038;6.992;2022-12-16T09:23:04;22.10;;;17.60;;
19842;SDS011;10082;51.038;6.992;2022-12-16T09:28:53;20.80;;;18.17;;
19842;SDS011;10082;51.038;6.992;2022-12-16T09:31:38;21.67;;;19.30;;
19842;SDS011;10082;51.038;6.992;2022-12-16T09:34:26;22.20;;;19.03;;
19842;SDS011;10082;51.038;6.992;2022-12-16T09:37:13;21.43;;;19.10;;
19842;SDS011;10082;51.038;6.992;2022-12-16T09:39:59;23.90;;;21.37;;
19842;SDS011;10082;51.038;6.992;2022-12-16T09:42:49;24.07;;;21.57;;
19842;SDS011;10082;51.038;6.992;2022-12-16T09:45:50;23.00;;;20.73;;
19842;SDS011;10082;51.038;6.992;2022-12-16T09:48:48;24.13;;;21.67;;
19842;SDS011;10082;51.038;6.992;2022-12-16T09:51:41;22.83;;;20.53;;
19842;SDS011;10082;51.038;6.992;2022-12-16T09:54:32;22.93;;;20.60;;
19842;SDS011;10082;51.038;6.992;2022-12-16T09:57:20;22.63;;;20.40;;
19842;SDS011;10082;51.038;6.992;2022-12-16T10:03:12;22.63;;;20.40;;
19842;SDS011;10082;51.038;6.992;2022-12-16T10:06:06;23.03;;;20.33;;
19842;SDS011;10082;51.038;6.992;2022-12-16T10:08:56;23.33;;;20.60;;
19842;SDS011;10082;51.038;6.992;2022-12-16T10:11:52;23.93;;;20.47;;
19842;SDS011;10082;51.038;6.992;2022-12-16T10:14:46;22.47;;;20.17;;
19842;SDS011;10082;51.038;6.992;2022-12-16T10:17:35;21.40;;;18.77;;
19842;SDS011;10082;51.038;6.992;2022-12-16T10:20:28;22.23;;;19.83;;
19842;SDS011;10082;51.038;6.992;2022-12-16T10:23:20;22.50;;;19.50;;
19842;SDS011;10082;51.038;6.992;2022-12-16T10:26:12;21.77;;;19.47;;
19842;SDS011;10082;51.038;6.992;2022-12-16T10:29:11;23.03;;;19.10;;
19842;SDS011;10082;51.038;6.992;2022-12-16T10:32:04;22.40;;;19.00;;
19842;SDS011;10082;51.038;6.992;2022-12-16T10:35:14;22.77;;;19.13;;
19842;SDS011;10082;51.038;6.992;2022-12-16T10:38:06;23.90;;;19.73;;
19842;SDS011;10082;51.038;6.992;2022-12-16T10:41:01;21.83;;;18.17;;
19842;SDS011;10082;51.038;6.992;2022-12-16T10:43:47;20.87;;;17.97;;
19842;SDS011;10082;51.038;6.992;2022-12-16T10:46:35;23.07;;;18.10;;
19842;SDS011;10082;51.038;6.992;2022-12-16T10:49:29;23.00;;;18.83;;
19842;SDS011;10082;51.038;6.992;2022-12-16T10:52:17;22.13;;;19.13;;
19842;SDS011;10082;51.038;6.992;2022-12-16T10:55:06;25.17;;;19.30;;
19842;SDS011;10082;51.038;6.992;2022-12-16T10:58:04;24.73;;;19.50;;
19842;SDS011;10082;51.038;6.992;2022-12-16T11:01:19;24.90;;;18.67;;
19842;SDS011;10082;51.038;6.992;2022-12-16T11:04:27;23.90;;;19.37;;
19842;SDS011;10082;51.038;6.992;2022-12-16T11:07:33;23.97;;;19.20;;
19842;SDS011;10082;51.038;6.992;2022-12-16T11:13:49;25.27;;;19.67;;
19842;SDS011;10082;51.038;6.992;2022-12-16T11:17:09;25.17;;;19.70;;
19842;SDS011;10082;51.038;6.992;2022-12-16T11:20:06;27.00;;;18.73;;
19842;SDS011;10082;51.038;6.992;2022-12-16T11:23:11;24.23;;;19.70;;
19842;SDS011;10082;51.038;6.992;2022-12-16T11:26:06;28.37;;;22.10;;
19842;SDS011;10082;51.038;6.992;2022-12-16T11:29:02;27.80;;;21.20;;
19842;SDS011;10082;51.038;6.992;2022-12-16T11:31:53;28.50;;;22.17;;
19842;SDS011;10082;51.038;6.992;2022-12-16T11:34:52;28.30;;;22.23;;
19842;SDS011;10082;51.038;6.992;2022-12-16T11:37:49;28.10;;;21.27;;
19842;SDS011;10082;51.038;6.992;2022-12-16T11:40:40;27.03;;;22.00;;
19842;SDS011;10082;51.038;6.992;2022-12-16T11:43:28;27.07;;;21.63;;
19842;SDS011;10082;51.038;6.992;2022-12-16T11:46:31;29.93;;;21.50;;
19842;SDS011;10082;51.038;6.992;2022-12-16T11:49:23;29.53;;;23.40;;
19842;SDS011;10082;51.038;6.992;2022-12-16T11:52:18;27.67;;;21.60;;
19842;SDS011;10082;51.038;6.992;2022-12-16T11:55:22;30.23;;;23.03;;
19842;SDS011;10082;51.038;6.992;2022-12-16T12:01:27;29.50;;;23.37;;
19842;SDS011;10082;51.038;6.992;2022-12-16T12:04:18;30.03;;;24.13;;
19842;SDS011;10082;51.038;6.992;2022-12-16T12:07:37;30.43;;;23.87;;
19842;SDS011;10082;51.038;6.992;2022-12-16T12:10:44;29.70;;;24.37;;
19842;SDS011;10082;51.038;6.992;2022-12-16T12:13:54;27.27;;;23.03;;
19842;SDS011;10082;51.038;6.992;2022-12-16T12:17:06;29.77;;;24.50;;
19842;SDS011;10082;51.038;6.992;2022-12-16T12:20:06;29.97;;;24.97;;
19842;SDS011;10082;51.038;6.992;2022-12-16T12:23:23;30.03;;;24.53;;
19842;SDS011;10082;51.038;6.992;2022-12-16T12:26:21;29.60;;;26.27;;
19842;SDS011;10082;51.038;6.992;2022-12-16T12:33:00;28.80;;;24.83;;
19842;SDS011;10082;51.038;6.992;2022-12-16T12:36:19;30.87;;;25.03;;
19842;SDS011;10082;51.038;6.992;2022-12-16T12:39:15;28.97;;;25.37;;
19842;SDS011;10082;51.038;6.992;2022-12-16T12:42:32;30.27;;;24.97;;
19842;SDS011;10082;51.038;6.992;2022-12-16T12:45:40;31.03;;;25.77;;
19842;SDS011;10082;51.038;6.992;2022-12-16T12:48:39;32.70;;;27.10;;
19842;SDS011;10082;51.038;6.992;2022-12-16T12:51:35;31.63;;;27.27;;
19842;SDS011;10082;51.038;6.992;2022-12-16T12:54:29;32.93;;;27.90;;
19842;SDS011;10082;51.038;6.992;2022-12-16T12:57:27;35.33;;;27.60;;
19842;SDS011;10082;51.038;6.992;2022-12-16T13:00:23;35.17;;;27.30;;
19842;SDS011;10082;51.038;6.992;2022-12-16T13:03:21;36.20;;;27.80;;
19842;SDS011;10082;51.038;6.992;2022-12-16T13:06:35;37.63;;;27.47;;
19842;SDS011;10082;51.038;6.992;2022-12-16T13:09:42;39.23;;;28.27;;
19842;SDS011;10082;51.038;6.992;2022-12-16T13:12:39;40.83;;;31.50;;
19842;SDS011;10082;51.038;6.992;2022-12-16T13:15:33;37.00;;;28.53;;
19842;SDS011;10082;51.038;6.992;2022-12-16T13:24:41;39.27;;;27.93;;
19842;SDS011;10082;51.038;6.992;2022-12-16T13:30:57;37.37;;;28.50;;
19842;SDS011;10082;51.038;6.992;2022-12-16T13:33:49;39.70;;;28.10;;
19842;SDS011;10082;51.038;6.992;2022-12-16T13:36:42;38.37;;;27.57;;
19842;SDS011;10082;51.038;6.992;2022-12-16T13:39:58;39.50;;;28.43;;
19842;SDS011;10082;51.038;6.992;2022-12-16T13:43:01;37.60;;;28.40;;
19842;SDS011;10082;51.038;6.992;2022-12-16T13:49:43;41.93;;;28.87;;
19842;SDS011;10082;51.038;6.992;2022-12-16T13:52:41;47.60;;;31.13;;
19842;SDS011;10082;51.038;6.992;2022-12-16T13:55:39;49.23;;;32.83;;
19842;SDS011;10082;51.038;6.992;2022-12-16T13:58:31;48.70;;;33.03;;
19842;SDS011;10082;51.038;6.992;2022-12-16T14:01:23;53.40;;;34.87;;
19842;SDS011;10082;51.038;6.992;2022-12-16T14:04:18;51.93;;;34.67;;
19842;SDS011;10082;51.038;6.992;2022-12-16T14:07:11;50.23;;;33.37;;
19842;SDS011;10082;51.038;6.992;2022-12-16T14:09:57;57.67;;;36.30;;
19842;SDS011;10082;51.038;6.992;2022-12-16T14:12:49;55.77;;;36.63;;
19842;SDS011;10082;51.038;6.992;2022-12-16T14:15:50;57.70;;;38.83;;
19842;SDS011;10082;51.038;6.992;2022-12-16T14:18:44;55.33;;;37.67;;
19842;SDS011;10082;51.038;6.992;2022-12-16T14:21:43;62.53;;;41.77;;
19842;SDS011;10082;51.038;6.992;2022-12-16T14:24:36;57.90;;;41.40;;
19842;SDS011;10082;51.038;6.992;2022-12-16T14:27:23;54.07;;;39.90;;
19842;SDS011;10082;51.038;6.992;2022-12-16T14:30:21;62.37;;;41.13;;
19842;SDS011;10082;51.038;6.992;2022-12-16T14:33:15;58.27;;;39.90;;
19842;SDS011;10082;51.038;6.992;2022-12-16T14:36:17;61.97;;;42.60;;
19842;SDS011;10082;51.038;6.992;2022-12-16T14:39:09;66.33;;;42.50;;
19842;SDS011;10082;51.038;6.992;2022-12-16T14:41:55;63.90;;;41.10;;
19842;SDS011;10082;51.038;6.992;2022-12-16T14:44:43;62.40;;;42.67;;
19842;SDS011;10082;51.038;6.992;2022-12-16T14:50:35;65.80;;;43.57;;
19842;SDS011;10082;51.038;6.992;2022-12-16T14:53:29;65.33;;;44.60;;
19842;SDS011;10082;51.038;6.992;2022-12-16T14:56:15;69.10;;;46.93;;
19842;SDS011;10082;51.038;6.992;2022-12-16T14:59:14;76.97;;;47.87;;
19842;SDS011;10082;51.038;6.992;2022-12-16T15:02:09;70.20;;;46.60;;
19842;SDS011;10082;51.038;6.992;2022-12-16T15:08:30;65.83;;;45.40;;
19842;SDS011;10082;51.038;6.992;2022-12-16T15:11:20;68.10;;;44.90;;
19842;SDS011;10082;51.038;6.992;2022-12-16T15:14:17;73.57;;;45.60;;
19842;SDS011;10082;51.038;6.992;2022-12-16T15:17:14;70.73;;;43.67;;
19842;SDS011;10082;51.038;6.992;2022-12-16T15:20:04;82.63;;;44.90;;
19842;SDS011;10082;51.038;6.992;2022-12-16T15:23:00;81.27;;;45.30;;
19842;SDS011;10082;51.038;6.992;2022-12-16T15:25:51;74.53;;;47.33;;
19842;SDS011;10082;51.038;6.992;2022-12-16T15:28:44;77.70;;;47.07;;
19842;SDS011;10082;51.038;6.992;2022-12-16T15:31:31;74.70;;;48.03;;
19842;SDS011;10082;51.038;6.992;2022-12-16T15:34:24;78.00;;;50.43;;
19842;SDS011;10082;51.038;6.992;2022-12-16T15:37:18;79.37;;;49.43;;
19842;SDS011;10082;51.038;6.992;2022-12-16T15:40:20;83.13;;;49.17;;
19842;SDS011;10082;51.038;6.992;2022-12-16T15:43:25;79.10;;;46.90;;
19842;SDS011;10082;51.038;6.992;2022-12-16T15:46:17;84.70;;;46.97;;
19842;SDS011;10082;51.038;6.992;2022-12-16T15:49:13;89.50;;;46.47;;
19842;SDS011;10082;51.038;6.992;2022-12-16T15:55:28;89.20;;;47.40;;
19842;SDS011;10082;51.038;6.992;2022-12-16T15:58:18;82.70;;;43.30;;
19842;SDS011;10082;51.038;6.992;2022-12-16T16:01:09;77.33;;;44.87;;
19842;SDS011;10082;51.038;6.992;2022-12-16T16:03:57;74.17;;;44.33;;
19842;SDS011;10082;51.038;6.992;2022-12-16T16:06:44;74.47;;;44.77;;
19842;SDS011;10082;51.038;6.992;2022-12-16T16:09:41;91.27;;;46.20;;
19842;SDS011;10082;51.038;6.992;2022-12-16T16:12:25;88.43;;;45.30;;
19842;SDS011;10082;51.038;6.992;2022-12-16T16:15:12;100.20;;;46.00;;
19842;SDS011;10082;51.038;6.992;2022-12-16T16:18:02;94.53;;;48.50;;
19842;SDS011;10082;51.038;6.992;2022-12-16T16:20:55;92.87;;;47.97;;
19842;SDS011;10082;51.038;6.992;2022-12-16T16:23:42;76.77;;;39.73;;
19842;SDS011;10082;51.038;6.992;2022-12-16T16:26:29;81.37;;;42.77;;
19842;SDS011;10082;51.038;6.992;2022-12-16T16:29:17;62.63;;;33.47;;
19842;SDS011;10082;51.038;6.992;2022-12-16T16:32:02;60.90;;;34.83;;
19842;SDS011;10082;51.038;6.992;2022-12-16T16:34:58;64.60;;;36.40;;
19842;SDS011;10082;51.038;6.992;2022-12-16T16:37:47;67.17;;;37.23;;
19842;SDS011;10082;51.038;6.992;2022-12-16T16:40:33;64.93;;;35.03;;
19842;SDS011;10082;51.038;6.992;2022-12-16T16:43:23;70.37;;;39.70;;
19842;SDS011;10082;51.038;6.992;2022-12-16T16:46:32;55.87;;;31.93;;
19842;SDS011;10082;51.038;6.992;2022-12-16T16:49:23;67.67;;;35.97;;
19842;SDS011;10082;51.038;6.992;2022-12-16T16:52:18;72.13;;;34.30;;
19842;SDS011;10082;51.038;6.992;2022-12-16T16:55:05;65.70;;;32.63;;
19842;SDS011;10082;51.038;6.992;2022-12-16T16:57:56;56.30;;;30.60;;
19842;SDS011;10082;51.038;6.992;2022-12-16T17:00:44;58.20;;;29.10;;
19842;SDS011;10082;51.038;6.992;2022-12-16T17:03:30;59.27;;;30.90;;
19842;SDS011;10082;51.038;6.992;2022-12-16T17:06:32;53.97;;;27.17;;